createdAt,value
2018-06-07T00:00:03.498Z,8.30
2018-06-07T00:03:57.462Z,8.47
2018-06-07T00:07:51.667Z,8.37
2018-06-07T00:11:45.611Z,8.00
2018-06-07T00:15:39.987Z,9.10
2018-06-07T00:19:33.937Z,10.30
2018-06-07T00:23:27.964Z,9.73
2018-06-07T00:27:21.877Z,8.83
2018-06-07T00:31:15.855Z,9.53
2018-06-07T00:35:09.852Z,8.90
2018-06-07T00:39:04.618Z,10.15
2018-06-07T00:42:58.319Z,10.43
2018-06-07T00:46:52.446Z,9.35
2018-06-07T00:50:46.535Z,8.70
2018-06-07T00:54:40.306Z,9.03
2018-06-07T00:58:34.758Z,10.45
2018-06-07T01:02:29.308Z,9.15
2018-06-07T01:06:23.355Z,8.73
2018-06-07T01:10:17.370Z,9.07
2018-06-07T01:14:11.441Z,9.50
2018-06-07T01:18:05.633Z,8.65
2018-06-07T01:21:59.911Z,10.03
2018-06-07T01:25:53.934Z,9.77
2018-06-07T01:29:59.853Z,10.13
2018-06-07T01:33:53.898Z,10.50
2018-06-07T01:37:59.347Z,9.80
2018-06-07T01:41:53.453Z,11.03
2018-06-07T01:45:47.610Z,10.20
2018-06-07T01:49:42.109Z,10.70
2018-06-07T01:53:36.247Z,9.93
2018-06-07T01:57:30.268Z,10.70
2018-06-07T02:01:24.467Z,12.53
2018-06-07T02:05:18.468Z,11.70
2018-06-07T02:09:12.366Z,11.37
2018-06-07T02:13:06.364Z,10.88
2018-06-07T02:17:00.499Z,11.57
2018-06-07T02:20:54.502Z,11.00
2018-06-07T02:24:48.466Z,11.12
2018-06-07T02:28:42.421Z,11.57
2018-06-07T02:32:36.342Z,11.48
2018-06-07T02:36:30.369Z,10.43
2018-06-07T02:40:24.398Z,12.53
2018-06-07T02:44:18.483Z,11.55
2018-06-07T02:48:14.656Z,11.05
2018-06-07T02:52:08.637Z,10.78
2018-06-07T02:56:02.680Z,13.08
2018-06-07T02:59:56.677Z,11.57
2018-06-07T03:03:50.730Z,11.22
2018-06-07T03:07:45.070Z,11.10
2018-06-07T03:11:39.222Z,12.75
2018-06-07T03:15:33.193Z,13.62
2018-06-07T03:19:27.171Z,14.20
2018-06-07T03:23:21.202Z,12.47
2018-06-07T03:27:15.160Z,12.35
2018-06-07T03:31:09.113Z,13.58
2018-06-07T03:35:03.617Z,12.68
2018-06-07T03:38:57.610Z,12.98
2018-06-07T03:42:51.922Z,13.43
2018-06-07T03:46:46.160Z,12.23
2018-06-07T03:50:40.235Z,12.82
2018-06-07T03:54:37.011Z,13.55
2018-06-07T03:58:31.536Z,11.73
2018-06-07T04:02:25.543Z,13.32
2018-06-07T04:06:19.683Z,11.50
2018-06-07T04:10:13.788Z,11.45
2018-06-07T04:14:07.814Z,13.20
2018-06-07T04:18:02.631Z,12.73
2018-06-07T04:21:56.649Z,13.13
2018-06-07T04:25:50.903Z,12.47
2018-06-07T04:29:44.899Z,12.07
2018-06-07T04:33:39.003Z,12.57
2018-06-07T04:37:33.142Z,11.43
2018-06-07T04:41:27.035Z,11.50
2018-06-07T04:45:21.357Z,11.00
2018-06-07T04:49:15.371Z,10.65
2018-06-07T04:53:09.663Z,11.65
2018-06-07T04:57:03.634Z,11.08
2018-06-07T05:00:57.614Z,12.23
2018-06-07T05:04:53.384Z,11.28
2018-06-07T05:08:49.646Z,11.87
2018-06-07T05:12:44.134Z,12.00
2018-06-07T05:16:38.217Z,23.47
2018-06-07T05:20:32.649Z,12.30
2018-06-07T05:24:26.847Z,12.33
2018-06-07T05:28:20.905Z,11.93
2018-06-07T05:32:14.969Z,11.78
2018-06-07T05:36:10.938Z,12.58
2018-06-07T05:40:05.294Z,14.87
2018-06-07T05:44:00.105Z,11.55
2018-06-07T05:47:54.135Z,12.50
2018-06-07T05:51:48.159Z,12.95
2018-06-07T05:55:42.368Z,12.20
2018-06-07T05:59:36.372Z,14.17
2018-06-07T06:03:30.299Z,12.28
2018-06-07T06:07:24.522Z,11.50
2018-06-07T06:11:18.502Z,12.40
2018-06-07T06:15:13.298Z,12.07
2018-06-07T06:19:07.267Z,12.00
2018-06-07T06:23:01.334Z,12.23
2018-06-07T06:26:56.230Z,11.57
2018-06-07T06:30:51.176Z,12.58
2018-06-07T06:34:45.548Z,13.00
2018-06-07T06:38:43.638Z,13.47
2018-06-07T06:42:39.407Z,12.80
2018-06-07T06:46:33.475Z,12.35
2018-06-07T06:50:27.717Z,12.82
2018-06-07T06:54:21.739Z,13.85
2018-06-07T06:58:16.690Z,12.33
2018-06-07T07:02:10.724Z,12.30
2018-06-07T07:06:04.900Z,12.00
2018-06-07T07:09:59.087Z,13.33
2018-06-07T07:13:53.257Z,13.03
2018-06-07T07:17:47.606Z,13.43
2018-06-07T07:21:41.752Z,14.10
2018-06-07T07:25:35.834Z,13.67
2018-06-07T07:29:30.167Z,13.70
2018-06-07T07:33:24.107Z,13.60
2018-06-07T07:37:19.120Z,13.20
2018-06-07T07:41:13.143Z,13.73
2018-06-07T07:45:07.247Z,13.30
2018-06-07T07:49:02.023Z,13.30
2018-06-07T07:52:57.422Z,13.38
2018-06-07T07:56:51.607Z,15.63
2018-06-07T08:00:45.615Z,13.65
2018-06-07T08:04:39.682Z,13.80
2018-06-07T08:08:33.916Z,14.07
2018-06-07T08:12:29.791Z,12.88
2018-06-07T08:16:24.258Z,14.25
2018-06-07T08:20:19.137Z,14.67
2018-06-07T08:24:13.143Z,14.00
2018-06-07T08:28:07.291Z,14.63
2018-06-07T08:32:02.181Z,14.55
2018-06-07T08:35:56.480Z,14.53
2018-06-07T08:39:50.461Z,14.93
2018-06-07T08:43:44.594Z,14.58
2018-06-07T08:47:38.669Z,15.40
2018-06-07T08:51:33.744Z,14.50
2018-06-07T08:55:28.008Z,15.13
2018-06-07T08:59:22.297Z,17.07
2018-06-07T09:03:16.349Z,15.50
2018-06-07T09:07:10.400Z,17.30
2018-06-07T09:11:04.455Z,15.60
2018-06-07T09:14:58.867Z,15.90
2018-06-07T09:18:53.769Z,14.95
2018-06-07T09:22:47.946Z,16.07
2018-06-07T09:26:42.371Z,16.60
2018-06-07T09:30:36.507Z,14.10
2018-06-07T09:34:31.503Z,15.30
2018-06-07T09:38:25.608Z,15.18
2018-06-07T09:42:19.647Z,15.20
2018-06-07T09:46:13.983Z,15.03
2018-06-07T09:50:08.070Z,14.37
2018-06-07T09:54:02.126Z,14.40
2018-06-07T09:57:55.928Z,14.30
2018-06-07T10:01:50.441Z,13.75
2018-06-07T10:05:44.527Z,14.53
2018-06-07T10:09:38.825Z,12.53
2018-06-07T10:13:32.897Z,13.60
2018-06-07T10:17:26.999Z,14.67
2018-06-07T10:21:21.685Z,13.33
2018-06-07T10:25:16.259Z,13.60
2018-06-07T10:29:10.046Z,14.07
2018-06-07T10:33:05.043Z,12.87
2018-06-07T10:37:00.081Z,13.37
2018-06-07T10:40:54.404Z,13.78
2018-06-07T10:44:53.139Z,13.98
2018-06-07T10:48:47.184Z,13.63
2018-06-07T10:52:41.290Z,13.10
2018-06-07T10:56:36.728Z,12.73
2018-06-07T11:00:31.144Z,11.65
2018-06-07T11:04:25.347Z,11.50
2018-06-07T11:08:19.952Z,11.90
2018-06-07T11:12:16.620Z,11.97
2018-06-07T11:16:10.738Z,11.05
2018-06-07T11:20:04.893Z,12.05
2018-06-07T11:23:59.292Z,12.37
2018-06-07T11:27:54.751Z,13.47
2018-06-07T11:31:48.940Z,15.03
2018-06-07T11:35:43.027Z,13.47
2018-06-07T11:39:37.982Z,12.30
2018-06-07T11:43:32.194Z,13.62
2018-06-07T11:47:26.278Z,11.93
2018-06-07T11:51:20.273Z,14.25
2018-06-07T11:55:14.412Z,12.58
2018-06-07T11:59:09.111Z,11.80
2018-06-07T12:03:03.538Z,12.30
2018-06-07T12:06:58.253Z,12.98
2018-06-07T12:10:53.392Z,12.50
2018-06-07T12:14:47.411Z,12.40
2018-06-07T12:18:41.738Z,13.95
2018-06-07T12:22:35.970Z,13.63
2018-06-07T12:26:30.248Z,16.57
2018-06-07T12:34:41.131Z,14.70
2018-06-07T12:38:35.578Z,15.33
2018-06-07T12:42:30.802Z,14.03
2018-06-07T12:46:24.819Z,15.33
2018-06-07T12:50:19.127Z,14.83
2018-06-07T12:54:13.238Z,15.17
2018-06-07T12:58:07.300Z,15.10
2018-06-07T13:02:01.652Z,16.48
2018-06-07T13:05:55.845Z,14.30
2018-06-07T13:09:50.017Z,14.70
2018-06-07T13:13:44.264Z,14.83
2018-06-07T13:17:37.581Z,17.00
2018-06-07T13:21:32.162Z,15.38
2018-06-07T13:25:26.232Z,14.80
2018-06-07T13:29:20.313Z,13.13
2018-06-07T13:33:14.533Z,12.60
2018-06-07T13:37:08.768Z,14.53
2018-06-07T13:41:02.793Z,13.60
2018-06-07T13:44:57.023Z,14.07
2018-06-07T13:48:51.270Z,13.22
2018-06-07T13:52:48.053Z,13.78
2018-06-07T13:56:44.280Z,13.40
2018-06-07T14:00:38.789Z,14.83
2018-06-07T14:04:32.915Z,15.37
2018-06-07T14:08:27.178Z,14.63
2018-06-07T14:12:21.753Z,13.22
2018-06-07T14:16:15.923Z,16.27
2018-06-07T14:20:09.998Z,13.50
2018-06-07T14:24:03.944Z,11.77
2018-06-07T14:27:58.654Z,10.57
2018-06-07T14:31:52.660Z,12.73
2018-06-07T14:35:47.363Z,16.02
2018-06-07T14:39:41.518Z,17.03
2018-06-07T14:43:35.563Z,18.40
2018-06-07T14:47:30.368Z,17.40
2018-06-07T14:51:24.615Z,16.52
2018-06-07T14:55:19.197Z,15.50
2018-06-07T14:59:13.342Z,14.40
2018-06-07T15:03:08.323Z,15.05
2018-06-07T15:07:02.533Z,14.10
2018-06-07T15:36:45.911Z,15.57
2018-06-07T15:40:43.248Z,16.53
2018-06-07T15:44:37.600Z,15.87
2018-06-07T15:48:33.111Z,16.10
2018-06-07T15:52:31.604Z,16.10
2018-06-07T15:56:25.903Z,15.13
2018-06-07T16:00:21.907Z,14.47
2018-06-07T16:04:16.627Z,15.97
2018-06-07T16:08:10.783Z,15.13
2018-06-07T16:12:06.394Z,16.27
2018-06-07T16:16:00.740Z,20.10
2018-06-07T16:19:55.285Z,19.63
2018-06-07T16:23:50.749Z,26.60
2018-06-07T16:27:44.883Z,26.73
2018-06-07T16:31:42.400Z,26.10
2018-06-07T16:35:36.962Z,23.50
2018-06-07T16:39:31.200Z,24.95
2018-06-07T16:43:26.856Z,19.98
2018-06-07T16:47:22.400Z,19.10
2018-06-07T16:51:18.335Z,20.07
2018-06-07T16:55:13.128Z,21.65
2018-06-07T16:59:08.900Z,23.67
2018-06-07T17:03:03.168Z,26.75
2018-06-07T17:07:01.579Z,27.40
2018-06-07T17:10:55.566Z,32.60
2018-06-07T17:14:49.821Z,27.87
2018-06-07T17:18:43.852Z,29.55
2018-06-07T17:22:40.123Z,24.52
2018-06-07T17:26:36.783Z,15.95
2018-06-07T17:30:30.886Z,19.87
2018-06-07T17:34:33.597Z,16.93
2018-06-07T17:38:28.253Z,16.43
2018-06-07T17:42:22.384Z,18.13
2018-06-07T17:46:16.589Z,17.23
2018-06-07T17:50:10.724Z,17.10
2018-06-07T17:54:06.386Z,14.28
2018-06-07T17:58:02.235Z,17.70
2018-06-07T18:01:56.613Z,12.25
2018-06-07T18:05:50.792Z,14.43
2018-06-07T18:09:47.768Z,16.00
2018-06-07T18:13:42.632Z,15.77
2018-06-07T18:17:36.764Z,17.20
2018-06-07T18:21:30.778Z,18.92
2018-06-07T18:25:24.796Z,16.85
2018-06-07T18:29:19.127Z,17.90
2018-06-07T18:33:13.239Z,18.55
2018-06-07T18:37:07.417Z,19.65
2018-06-07T18:41:01.640Z,18.17
2018-06-07T18:44:55.661Z,17.93
2018-06-07T18:48:49.834Z,15.77
2018-06-07T18:52:43.987Z,15.63
2018-06-07T18:56:38.359Z,14.73
2018-06-07T19:00:32.525Z,16.43
2018-06-07T19:04:26.892Z,17.80
2018-06-07T19:08:21.054Z,16.93
2018-06-07T19:12:16.110Z,19.90
2018-06-07T19:16:10.419Z,19.73
2018-06-07T19:20:11.035Z,20.72
2018-06-07T19:24:05.157Z,20.70
2018-06-07T19:27:59.334Z,20.52
2018-06-07T19:32:59.341Z,20.43
2018-06-07T19:36:53.465Z,19.90
2018-06-07T19:40:53.012Z,20.00
2018-06-07T19:44:47.089Z,19.98
2018-06-07T19:48:41.139Z,17.42
2018-06-07T19:52:35.100Z,19.52
2018-06-07T19:56:29.120Z,20.12
2018-06-07T20:00:25.626Z,19.12
2018-06-07T20:04:19.909Z,19.17
2018-06-07T20:08:14.147Z,19.45
2018-06-07T20:12:08.952Z,19.30
2018-06-07T20:16:05.962Z,19.40
2018-06-07T20:19:59.923Z,20.82
2018-06-07T20:23:54.189Z,20.20
2018-06-07T20:27:49.275Z,20.70
2018-06-07T20:31:43.351Z,21.27
2018-06-07T20:35:37.544Z,21.35
2018-06-07T20:39:31.782Z,21.95
2018-06-07T20:43:26.021Z,24.20
2018-06-07T20:47:20.093Z,23.52
2018-06-07T20:51:14.460Z,23.60
2018-06-07T20:55:08.904Z,24.72
2018-06-07T20:59:04.267Z,25.00
2018-06-07T21:02:58.774Z,25.52
2018-06-07T21:06:52.779Z,26.62
2018-06-07T21:10:46.826Z,24.10
2018-06-07T21:14:40.919Z,22.43
2018-06-07T21:18:35.277Z,20.30
2018-06-07T21:22:29.572Z,21.20
2018-06-07T21:26:24.154Z,19.40
2018-06-07T21:30:18.261Z,18.43
2018-06-07T21:34:12.517Z,16.03
2018-06-07T21:38:06.566Z,17.73
2018-06-07T21:42:00.679Z,17.80
2018-06-07T21:45:54.771Z,17.25
2018-06-07T21:49:48.835Z,16.80
2018-06-07T21:53:42.896Z,17.85
2018-06-07T21:57:36.919Z,17.60
2018-06-07T22:01:31.074Z,16.62
2018-06-07T22:05:25.180Z,15.30
2018-06-07T22:09:19.385Z,14.95
2018-06-07T22:13:13.588Z,15.07
2018-06-07T22:17:07.772Z,15.40
2018-06-07T22:21:02.387Z,15.60
2018-06-07T22:24:56.479Z,17.27
2018-06-07T22:28:50.598Z,13.73
2018-06-07T22:32:44.956Z,12.73
2018-06-07T22:36:39.063Z,13.35
2018-06-07T22:40:33.435Z,12.70
2018-06-07T22:44:27.541Z,15.05
2018-06-07T22:48:21.614Z,16.87
2018-06-07T22:52:15.681Z,16.40
2018-06-07T22:56:09.703Z,14.93
2018-06-07T23:00:03.740Z,15.97
2018-06-07T23:03:57.912Z,20.32
2018-06-07T23:07:51.935Z,21.77
2018-06-07T23:11:45.923Z,28.45
2018-06-07T23:15:39.959Z,31.93
2018-06-07T23:19:34.893Z,28.50
2018-06-07T23:23:28.386Z,31.60
2018-06-07T23:27:22.423Z,34.30
2018-06-07T23:31:16.417Z,34.00
2018-06-07T23:35:10.554Z,34.23
2018-06-07T23:39:08.322Z,32.90
2018-06-07T23:43:02.497Z,29.85
2018-06-07T23:46:56.517Z,31.52
2018-06-07T23:50:51.137Z,32.75
2018-06-07T23:54:45.168Z,32.03
2018-06-07T23:58:39.124Z,30.67
